10chiemaru — JD2376 — position and weather

sailwx.info

Track history (hours):
 
Tides and Currents Weather Stations Pressure Air Temp Water Temp Dewpoint Dewpoint Depression Visibility Wind Speed Wind Dir Waves Ship Positions

10chiemaru

Last reported at 2015-Mar-27 06:33 UTC. Time now 2015-Mar-27 06:55 UTC.
Position N 35°27' E 139°47'.

Length 72 m; draft 4.8 m.

Type: Ship. MMSI: 431000147.

Date/timePositionNaut miles runAvg speedWind from/ knotsBaromVisibWave heightAir tempDewpointWater temp
2015-Mar-27 06:33N 35°27' E 139°47'1111.1
2015-Mar-27 05:33N 35°32' E 139°59'5 5.1
2015-Mar-27 04:33N 35°33' E 140°05'0 0.0
2015-Mar-27 03:33N 35°33' E 140°05'0 0.0
2015-Mar-27 02:33N 35°33' E 140°05'0 0.0
2015-Mar-27 01:33N 35°33' E 140°05'0 0.0
2015-Mar-27 00:33N 35°33' E 140°05'0 0.2
2015-Mar-26 23:33N 35°33' E 140°05'3 2.8
2015-Mar-26 22:33N 35°33' E 140°02'0 0.0
2015-Mar-26 21:33N 35°33' E 140°02'0 0.0
2015-Mar-26 20:33N 35°33' E 140°02'0 0.0
2015-Mar-26 19:33N 35°33' E 140°02'0 0.0
2015-Mar-26 18:33N 35°33' E 140°02'0 0.0
2015-Mar-26 17:33N 35°33' E 140°02'0 0.0
2015-Mar-26 16:33N 35°33' E 140°02'0 0.0
2015-Mar-26 15:33N 35°33' E 140°02'7 6.8
2015-Mar-26 14:33N 35°30' E 139°55'1212.0
2015-Mar-26 13:33N 35°21' E 139°45'1111.3
2015-Mar-26 12:33N 35°10' E 139°46'13 0.4
2015-Mar-25 06:17N 35°03' E 139°33'911.9
2015-Mar-25 05:33N 35°07' E 139°42'1111.2
2015-Mar-25 04:33N 35°18' E 139°44'8 8.2
2015-Mar-25 03:33N 35°24' E 139°38'0 0.0
2015-Mar-25 02:33N 35°24' E 139°38'0 0.0
2015-Mar-25 01:33N 35°24' E 139°38'0 0.0
2015-Mar-25 00:33N 35°24' E 139°38'0 0.0
2015-Mar-24 23:33N 35°24' E 139°38'3 3.3
2015-Mar-24 22:34N 35°25' E 139°42'5 4.8
2015-Mar-24 21:33N 35°29' E 139°39'0 0.0
2015-Mar-24 20:33N 35°29' E 139°39'0 0.0
2015-Mar-24 19:33N 35°29' E 139°39'0 0.0
2015-Mar-24 18:33N 35°29' E 139°39'0 0.0
2015-Mar-24 17:33N 35°29' E 139°39'0 0.0
2015-Mar-24 16:33N 35°29' E 139°39'0 0.0
2015-Mar-24 15:33N 35°29' E 139°39'0 0.0
2015-Mar-24 14:33N 35°29' E 139°39'0 0.0
2015-Mar-24 13:33N 35°29' E 139°39'0 0.0
2015-Mar-24 12:33N 35°29' E 139°39'0 0.0
2015-Mar-24 11:33N 35°29' E 139°39'0 0.0
2015-Mar-24 10:33N 35°29' E 139°39'0 0.0
2015-Mar-24 09:33N 35°29' E 139°39'0 0.0
2015-Mar-24 08:33N 35°29' E 139°39'0 0.0
2015-Mar-24 07:33N 35°29' E 139°39'0 0.0
2015-Mar-24 06:33N 35°29' E 139°39'0 0.0
2015-Mar-24 05:33N 35°29' E 139°39'0 0.0
2015-Mar-24 04:33N 35°29' E 139°39'3 2.6
2015-Mar-24 03:33N 35°27' E 139°41'3 2.8
2015-Mar-24 02:33N 35°24' E 139°40'0 0.0
2015-Mar-24 01:33N 35°24' E 139°40'0 0.0
2015-Mar-24 00:33N 35°24' E 139°40'0 0.2
2015-Mar-23 23:33N 35°24' E 139°40'4 3.8
2015-Mar-23 22:33N 35°23' E 139°44'0 0.0
2015-Mar-23 21:33N 35°23' E 139°44'0 0.1
2015-Mar-23 20:33N 35°23' E 139°44'0 0.1
2015-Mar-23 19:33N 35°23' E 139°44'0 0.0
2015-Mar-23 18:33N 35°23' E 139°44'0 0.0
2015-Mar-23 17:33N 35°23' E 139°44'0 0.0
2015-Mar-23 16:33N 35°23' E 139°44'0 0.0
2015-Mar-23 15:33N 35°23' E 139°44'0 0.0
2015-Mar-23 14:33N 35°23' E 139°44'0 0.0
2015-Mar-23 13:33N 35°23' E 139°44'0 0.0
2015-Mar-23 12:33N 35°23' E 139°44'0 0.0
2015-Mar-23 11:33N 35°23' E 139°44'0 0.0
2015-Mar-23 10:33N 35°23' E 139°44'0 0.0
2015-Mar-23 09:33N 35°23' E 139°44'3 3.1
2015-Mar-23 08:33N 35°26' E 139°46'5 5.2
2015-Mar-23 07:33N 35°31' E 139°46'0 0.0
2015-Mar-23 06:33N 35°31' E 139°46'0 0.0
2015-Mar-23 05:33N 35°31' E 139°46'0 0.0
2015-Mar-23 04:32N 35°31' E 139°46'0 0.0
2015-Mar-23 03:32N 35°31' E 139°46'2 2.2
2015-Mar-23 02:33N 35°30' E 139°49'1 1.2
2015-Mar-23 01:33N 35°30' E 139°50'0 0.0
2015-Mar-23 00:33N 35°30' E 139°50'0 0.0
2015-Mar-22 23:33N 35°30' E 139°50'0 0.0
2015-Mar-22 22:32N 35°30' E 139°50'0 0.0
2015-Mar-22 21:33N 35°30' E 139°50'0 0.0
2015-Mar-22 20:33N 35°30' E 139°50'0 0.1
2015-Mar-22 19:33N 35°30' E 139°50'0 0.0
2015-Mar-22 18:33N 35°30' E 139°50'0 0.0
2015-Mar-22 17:33N 35°30' E 139°50'0 0.1
2015-Mar-22 16:33N 35°30' E 139°50'0 0.0
2015-Mar-22 15:33N 35°30' E 139°50'0 0.0
2015-Mar-22 14:33N 35°30' E 139°50'0 0.0
2015-Mar-22 13:33N 35°30' E 139°50'0 0.0
2015-Mar-22 12:33N 35°30' E 139°50'0 0.0
2015-Mar-22 11:33N 35°30' E 139°50'0 0.0
2015-Mar-22 10:33N 35°30' E 139°50'0 0.0
2015-Mar-22 08:27N 35°30' E 139°50'6 1.1
2015-Mar-22 03:13N 35°35' E 139°55'4 4.1
2015-Mar-22 02:14N 35°31' E 139°52'811.7
2015-Mar-22 01:33N 35°27' E 139°44'3 3.0
2015-Mar-22 00:33N 35°28' E 139°40'0 0.0
2015-Mar-21 23:33N 35°28' E 139°40'3 3.3
2015-Mar-21 22:33N 35°26' E 139°43'2 2.1
2015-Mar-21 21:33N 35°24' E 139°45'0 0.0
2015-Mar-21 20:33N 35°24' E 139°45'1 1.5
2015-Mar-21 19:33N 35°23' E 139°45'1211.5
2015-Mar-21 18:33N 35°11' E 139°47'1212.0
2015-Mar-21 17:33N 34°60' E 139°43'  
2015-Mar-19 10:18N 34°60' E 139°27'810.6
2015-Mar-19 09:33N 35°04' E 139°35'1211.9
2015-Mar-19 08:33N 35°12' E 139°46'1211.7
2015-Mar-19 07:34N 35°24' E 139°43'15 2.2
2015-Mar-19 00:27N 35°31' E 139°59'8 2.0
2015-Mar-18 20:33N 35°27' E 139°51'1110.7
2015-Mar-18 19:34N 35°18' E 139°45'1111.4
2015-Mar-18 18:33N 35°06' E 139°45'  
Track history (hours):
 
Tides and Currents Weather Stations Pressure Air Temp Water Temp Dewpoint Dewpoint Depression Visibility Wind Speed Wind Dir Waves Ship Positions

10chiemaru

Last reported at 2015-Mar-27 06:33 UTC. Time now 2015-Mar-27 06:55 UTC.
Position N 35°27' E 139°47'.

Length 72 m; draft 4.8 m.

Type: Ship. MMSI: 431000147.

Date/timePositionNaut miles runAvg speedWind from/ knotsBaromVisibWave heightAir tempDewpointWater temp
2015-Mar-27 06:33N 35°27' E 139°47'1111.1
2015-Mar-27 05:33N 35°32' E 139°59'5 5.1
2015-Mar-27 04:33N 35°33' E 140°05'0 0.0
2015-Mar-27 03:33N 35°33' E 140°05'0 0.0
2015-Mar-27 02:33N 35°33' E 140°05'0 0.0
2015-Mar-27 01:33N 35°33' E 140°05'0 0.0
2015-Mar-27 00:33N 35°33' E 140°05'0 0.2
2015-Mar-26 23:33N 35°33' E 140°05'3 2.8
2015-Mar-26 22:33N 35°33' E 140°02'0 0.0
2015-Mar-26 21:33N 35°33' E 140°02'0 0.0
2015-Mar-26 20:33N 35°33' E 140°02'0 0.0
2015-Mar-26 19:33N 35°33' E 140°02'0 0.0
2015-Mar-26 18:33N 35°33' E 140°02'0 0.0
2015-Mar-26 17:33N 35°33' E 140°02'0 0.0
2015-Mar-26 16:33N 35°33' E 140°02'0 0.0
2015-Mar-26 15:33N 35°33' E 140°02'7 6.8
2015-Mar-26 14:33N 35°30' E 139°55'1212.0
2015-Mar-26 13:33N 35°21' E 139°45'1111.3
2015-Mar-26 12:33N 35°10' E 139°46'13 0.4
2015-Mar-25 06:17N 35°03' E 139°33'911.9
2015-Mar-25 05:33N 35°07' E 139°42'1111.2
2015-Mar-25 04:33N 35°18' E 139°44'8 8.2
2015-Mar-25 03:33N 35°24' E 139°38'0 0.0
2015-Mar-25 02:33N 35°24' E 139°38'0 0.0
2015-Mar-25 01:33N 35°24' E 139°38'0 0.0
2015-Mar-25 00:33N 35°24' E 139°38'0 0.0
2015-Mar-24 23:33N 35°24' E 139°38'3 3.3
2015-Mar-24 22:34N 35°25' E 139°42'5 4.8
2015-Mar-24 21:33N 35°29' E 139°39'0 0.0
2015-Mar-24 20:33N 35°29' E 139°39'0 0.0
2015-Mar-24 19:33N 35°29' E 139°39'0 0.0
2015-Mar-24 18:33N 35°29' E 139°39'0 0.0
2015-Mar-24 17:33N 35°29' E 139°39'0 0.0
2015-Mar-24 16:33N 35°29' E 139°39'0 0.0
2015-Mar-24 15:33N 35°29' E 139°39'0 0.0
2015-Mar-24 14:33N 35°29' E 139°39'0 0.0
2015-Mar-24 13:33N 35°29' E 139°39'0 0.0
2015-Mar-24 12:33N 35°29' E 139°39'0 0.0
2015-Mar-24 11:33N 35°29' E 139°39'0 0.0
2015-Mar-24 10:33N 35°29' E 139°39'0 0.0
2015-Mar-24 09:33N 35°29' E 139°39'0 0.0
2015-Mar-24 08:33N 35°29' E 139°39'0 0.0
2015-Mar-24 07:33N 35°29' E 139°39'0 0.0
2015-Mar-24 06:33N 35°29' E 139°39'0 0.0
2015-Mar-24 05:33N 35°29' E 139°39'0 0.0
2015-Mar-24 04:33N 35°29' E 139°39'3 2.6
2015-Mar-24 03:33N 35°27' E 139°41'3 2.8
2015-Mar-24 02:33N 35°24' E 139°40'0 0.0
2015-Mar-24 01:33N 35°24' E 139°40'0 0.0
2015-Mar-24 00:33N 35°24' E 139°40'0 0.2
2015-Mar-23 23:33N 35°24' E 139°40'4 3.8
2015-Mar-23 22:33N 35°23' E 139°44'0 0.0
2015-Mar-23 21:33N 35°23' E 139°44'0 0.1
2015-Mar-23 20:33N 35°23' E 139°44'0 0.1
2015-Mar-23 19:33N 35°23' E 139°44'0 0.0
2015-Mar-23 18:33N 35°23' E 139°44'0 0.0
2015-Mar-23 17:33N 35°23' E 139°44'0 0.0
2015-Mar-23 16:33N 35°23' E 139°44'0 0.0
2015-Mar-23 15:33N 35°23' E 139°44'0 0.0
2015-Mar-23 14:33N 35°23' E 139°44'0 0.0
2015-Mar-23 13:33N 35°23' E 139°44'0 0.0
2015-Mar-23 12:33N 35°23' E 139°44'0 0.0
2015-Mar-23 11:33N 35°23' E 139°44'0 0.0
2015-Mar-23 10:33N 35°23' E 139°44'0 0.0
2015-Mar-23 09:33N 35°23' E 139°44'3 3.1
2015-Mar-23 08:33N 35°26' E 139°46'5 5.2
2015-Mar-23 07:33N 35°31' E 139°46'0 0.0
2015-Mar-23 06:33N 35°31' E 139°46'0 0.0
2015-Mar-23 05:33N 35°31' E 139°46'0 0.0
2015-Mar-23 04:32N 35°31' E 139°46'0 0.0
2015-Mar-23 03:32N 35°31' E 139°46'2 2.2
2015-Mar-23 02:33N 35°30' E 139°49'1 1.2
2015-Mar-23 01:33N 35°30' E 139°50'0 0.0
2015-Mar-23 00:33N 35°30' E 139°50'0 0.0
2015-Mar-22 23:33N 35°30' E 139°50'0 0.0
2015-Mar-22 22:32N 35°30' E 139°50'0 0.0
2015-Mar-22 21:33N 35°30' E 139°50'0 0.0
2015-Mar-22 20:33N 35°30' E 139°50'0 0.1
2015-Mar-22 19:33N 35°30' E 139°50'0 0.0
2015-Mar-22 18:33N 35°30' E 139°50'0 0.0
2015-Mar-22 17:33N 35°30' E 139°50'0 0.1
2015-Mar-22 16:33N 35°30' E 139°50'0 0.0
2015-Mar-22 15:33N 35°30' E 139°50'0 0.0
2015-Mar-22 14:33N 35°30' E 139°50'0 0.0
2015-Mar-22 13:33N 35°30' E 139°50'0 0.0
2015-Mar-22 12:33N 35°30' E 139°50'0 0.0
2015-Mar-22 11:33N 35°30' E 139°50'0 0.0
2015-Mar-22 10:33N 35°30' E 139°50'0 0.0
2015-Mar-22 08:27N 35°30' E 139°50'6 1.1
2015-Mar-22 03:13N 35°35' E 139°55'4 4.1
2015-Mar-22 02:14N 35°31' E 139°52'811.7
2015-Mar-22 01:33N 35°27' E 139°44'3 3.0
2015-Mar-22 00:33N 35°28' E 139°40'0 0.0
2015-Mar-21 23:33N 35°28' E 139°40'3 3.3
2015-Mar-21 22:33N 35°26' E 139°43'2 2.1
2015-Mar-21 21:33N 35°24' E 139°45'0 0.0
2015-Mar-21 20:33N 35°24' E 139°45'1 1.5
2015-Mar-21 19:33N 35°23' E 139°45'1211.5
2015-Mar-21 18:33N 35°11' E 139°47'1212.0
2015-Mar-21 17:33N 34°60' E 139°43'  
2015-Mar-19 10:18N 34°60' E 139°27'810.6
2015-Mar-19 09:33N 35°04' E 139°35'1211.9
2015-Mar-19 08:33N 35°12' E 139°46'1211.7
2015-Mar-19 07:34N 35°24' E 139°43'15 2.2
2015-Mar-19 00:27N 35°31' E 139°59'8 2.0
2015-Mar-18 20:33N 35°27' E 139°51'1110.7
2015-Mar-18 19:34N 35°18' E 139°45'1111.4
2015-Mar-18 18:33N 35°06' E 139°45'  

Dump ship's entire track history